sensor_id;sensor_type;location;lat;lon;timestamp;P1;durP1;ratioP1;P2;durP2;ratioP2
74894;SDS011;63447;49.446;8.666;2023-05-10T00:00:33;3.22;;;1.23;;
74894;SDS011;63447;49.446;8.666;2023-05-10T00:02:59;3.77;;;1.40;;
74894;SDS011;63447;49.446;8.666;2023-05-10T00:05:29;3.83;;;1.50;;
74894;SDS011;63447;49.446;8.666;2023-05-10T00:07:54;4.47;;;1.50;;
74894;SDS011;63447;49.446;8.666;2023-05-10T00:10:22;3.67;;;1.35;;
74894;SDS011;63447;49.446;8.666;2023-05-10T00:12:48;3.67;;;1.10;;
74894;SDS011;63447;49.446;8.666;2023-05-10T00:15:15;3.67;;;1.13;;
74894;SDS011;63447;49.446;8.666;2023-05-10T00:17:40;4.47;;;1.27;;
74894;SDS011;63447;49.446;8.666;2023-05-10T00:20:06;3.27;;;1.20;;
74894;SDS011;63447;49.446;8.666;2023-05-10T00:22:34;3.58;;;0.90;;
74894;SDS011;63447;49.446;8.666;2023-05-10T00:25:00;6.25;;;1.20;;
74894;SDS011;63447;49.446;8.666;2023-05-10T00:27:27;5.90;;;1.00;;
74894;SDS011;63447;49.446;8.666;2023-05-10T00:29:53;3.10;;;0.93;;
74894;SDS011;63447;49.446;8.666;2023-05-10T00:32:18;2.80;;;0.90;;
74894;SDS011;63447;49.446;8.666;2023-05-10T00:34:46;3.15;;;1.00;;
74894;SDS011;63447;49.446;8.666;2023-05-10T00:37:16;3.63;;;0.93;;
74894;SDS011;63447;49.446;8.666;2023-05-10T00:39:44;3.73;;;0.90;;
74894;SDS011;63447;49.446;8.666;2023-05-10T00:42:11;3.35;;;0.93;;
74894;SDS011;63447;49.446;8.666;2023-05-10T00:44:39;5.27;;;1.10;;
74894;SDS011;63447;49.446;8.666;2023-05-10T00:47:07;3.22;;;1.00;;
74894;SDS011;63447;49.446;8.666;2023-05-10T00:49:33;3.20;;;1.00;;
74894;SDS011;63447;49.446;8.666;2023-05-10T00:52:05;3.42;;;0.88;;
74894;SDS011;63447;49.446;8.666;2023-05-10T00:54:31;3.47;;;0.95;;
74894;SDS011;63447;49.446;8.666;2023-05-10T00:56:59;2.80;;;0.95;;
74894;SDS011;63447;49.446;8.666;2023-05-10T00:59:26;3.15;;;0.90;;
74894;SDS011;63447;49.446;8.666;2023-05-10T01:01:53;3.13;;;1.00;;
74894;SDS011;63447;49.446;8.666;2023-05-10T01:04:18;2.78;;;0.88;;
74894;SDS011;63447;49.446;8.666;2023-05-10T01:06:46;2.25;;;0.80;;
74894;SDS011;63447;49.446;8.666;2023-05-10T01:12:52;2.55;;;0.88;;
74894;SDS011;63447;49.446;8.666;2023-05-10T01:15:17;3.38;;;0.88;;
74894;SDS011;63447;49.446;8.666;2023-05-10T01:17:47;2.33;;;0.80;;
74894;SDS011;63447;49.446;8.666;2023-05-10T01:20:16;3.60;;;0.93;;
74894;SDS011;63447;49.446;8.666;2023-05-10T01:28:52;2.58;;;0.70;;
74894;SDS011;63447;49.446;8.666;2023-05-10T01:31:39;3.33;;;0.90;;
74894;SDS011;63447;49.446;8.666;2023-05-10T01:34:20;3.95;;;0.88;;
74894;SDS011;63447;49.446;8.666;2023-05-10T01:36:58;3.15;;;1.00;;
74894;SDS011;63447;49.446;8.666;2023-05-10T01:42:17;3.08;;;0.88;;
74894;SDS011;63447;49.446;8.666;2023-05-10T01:45:06;3.95;;;0.98;;
74894;SDS011;63447;49.446;8.666;2023-05-10T01:47:42;3.35;;;0.95;;
74894;SDS011;63447;49.446;8.666;2023-05-10T01:50:14;3.05;;;1.00;;
74894;SDS011;63447;49.446;8.666;2023-05-10T01:52:44;3.38;;;0.90;;
74894;SDS011;63447;49.446;8.666;2023-05-10T01:55:20;3.50;;;1.00;;
74894;SDS011;63447;49.446;8.666;2023-05-10T01:57:48;2.72;;;0.80;;
74894;SDS011;63447;49.446;8.666;2023-05-10T02:00:20;5.43;;;1.00;;
74894;SDS011;63447;49.446;8.666;2023-05-10T02:02:48;4.35;;;0.95;;
74894;SDS011;63447;49.446;8.666;2023-05-10T02:05:15;3.90;;;0.98;;
74894;SDS011;63447;49.446;8.666;2023-05-10T02:07:45;3.15;;;1.02;;
74894;SDS011;63447;49.446;8.666;2023-05-10T02:10:11;3.72;;;1.20;;
74894;SDS011;63447;49.446;8.666;2023-05-10T02:12:42;3.95;;;0.98;;
74894;SDS011;63447;49.446;8.666;2023-05-10T02:15:10;2.80;;;0.90;;
74894;SDS011;63447;49.446;8.666;2023-05-10T02:17:39;3.05;;;0.90;;
74894;SDS011;63447;49.446;8.666;2023-05-10T02:20:09;3.00;;;0.90;;
74894;SDS011;63447;49.446;8.666;2023-05-10T02:22:36;3.35;;;1.02;;
74894;SDS011;63447;49.446;8.666;2023-05-10T02:25:06;3.35;;;1.08;;
74894;SDS011;63447;49.446;8.666;2023-05-10T02:27:33;3.60;;;1.17;;
74894;SDS011;63447;49.446;8.666;2023-05-10T02:30:02;3.70;;;1.02;;
74894;SDS011;63447;49.446;8.666;2023-05-10T02:32:30;4.75;;;1.02;;
74894;SDS011;63447;49.446;8.666;2023-05-10T02:34:58;3.70;;;1.00;;
74894;SDS011;63447;49.446;8.666;2023-05-10T02:37:31;3.78;;;1.20;;
74894;SDS011;63447;49.446;8.666;2023-05-10T02:39:58;3.33;;;1.02;;
74894;SDS011;63447;49.446;8.666;2023-05-10T02:42:24;3.63;;;1.00;;
74894;SDS011;63447;49.446;8.666;2023-05-10T02:44:54;3.35;;;1.20;;
74894;SDS011;63447;49.446;8.666;2023-05-10T02:47:27;3.55;;;1.00;;
74894;SDS011;63447;49.446;8.666;2023-05-10T02:50:00;4.20;;;1.27;;
74894;SDS011;63447;49.446;8.666;2023-05-10T02:52:29;3.10;;;1.13;;
74894;SDS011;63447;49.446;8.666;2023-05-10T02:55:02;3.13;;;1.10;;
74894;SDS011;63447;49.446;8.666;2023-05-10T02:57:34;3.38;;;1.13;;
74894;SDS011;63447;49.446;8.666;2023-05-10T03:00:06;3.60;;;1.20;;
74894;SDS011;63447;49.446;8.666;2023-05-10T03:02:37;4.93;;;1.23;;
74894;SDS011;63447;49.446;8.666;2023-05-10T03:05:02;4.45;;;1.33;;
74894;SDS011;63447;49.446;8.666;2023-05-10T03:07:32;3.92;;;1.40;;
74894;SDS011;63447;49.446;8.666;2023-05-10T03:09:58;4.10;;;1.33;;
74894;SDS011;63447;49.446;8.666;2023-05-10T03:12:33;4.30;;;1.42;;
74894;SDS011;63447;49.446;8.666;2023-05-10T03:17:52;4.03;;;1.40;;
74894;SDS011;63447;49.446;8.666;2023-05-10T03:20:25;4.38;;;1.27;;
74894;SDS011;63447;49.446;8.666;2023-05-10T03:22:55;3.75;;;1.30;;
74894;SDS011;63447;49.446;8.666;2023-05-10T03:25:33;4.18;;;1.40;;
74894;SDS011;63447;49.446;8.666;2023-05-10T03:27:59;3.50;;;1.40;;
74894;SDS011;63447;49.446;8.666;2023-05-10T03:30:26;3.97;;;1.40;;
74894;SDS011;63447;49.446;8.666;2023-05-10T03:32:58;3.45;;;1.25;;
74894;SDS011;63447;49.446;8.666;2023-05-10T03:35:31;3.65;;;1.40;;
74894;SDS011;63447;49.446;8.666;2023-05-10T03:37:57;4.43;;;2.08;;
74894;SDS011;63447;49.446;8.666;2023-05-10T03:40:25;5.78;;;1.67;;
74894;SDS011;63447;49.446;8.666;2023-05-10T03:42:53;4.63;;;1.63;;
74894;SDS011;63447;49.446;8.666;2023-05-10T03:45:19;5.53;;;1.70;;
74894;SDS011;63447;49.446;8.666;2023-05-10T03:47:47;3.45;;;1.27;;
74894;SDS011;63447;49.446;8.666;2023-05-10T03:50:12;4.17;;;1.83;;
74894;SDS011;63447;49.446;8.666;2023-05-10T03:52:37;4.40;;;1.90;;
74894;SDS011;63447;49.446;8.666;2023-05-10T03:55:04;4.68;;;1.80;;
74894;SDS011;63447;49.446;8.666;2023-05-10T03:57:30;4.45;;;2.20;;
74894;SDS011;63447;49.446;8.666;2023-05-10T03:59:55;5.57;;;2.15;;
74894;SDS011;63447;49.446;8.666;2023-05-10T04:02:25;6.13;;;2.15;;
74894;SDS011;63447;49.446;8.666;2023-05-10T04:04:51;5.03;;;2.60;;
74894;SDS011;63447;49.446;8.666;2023-05-10T04:07:16;4.90;;;2.50;;
74894;SDS011;63447;49.446;8.666;2023-05-10T04:09:45;5.03;;;2.40;;
74894;SDS011;63447;49.446;8.666;2023-05-10T04:12:12;4.85;;;2.38;;
74894;SDS011;63447;49.446;8.666;2023-05-10T04:14:38;5.05;;;2.58;;
74894;SDS011;63447;49.446;8.666;2023-05-10T04:17:06;4.65;;;2.50;;
74894;SDS011;63447;49.446;8.666;2023-05-10T04:19:31;4.85;;;2.42;;
74894;SDS011;63447;49.446;8.666;2023-05-10T04:21:59;7.05;;;2.38;;
74894;SDS011;63447;49.446;8.666;2023-05-10T04:24:24;4.45;;;2.40;;
74894;SDS011;63447;49.446;8.666;2023-05-10T04:26:50;5.82;;;2.53;;
74894;SDS011;63447;49.446;8.666;2023-05-10T04:29:16;6.00;;;2.72;;
74894;SDS011;63447;49.446;8.666;2023-05-10T04:31:43;5.47;;;2.70;;
74894;SDS011;63447;49.446;8.666;2023-05-10T04:34:09;6.40;;;2.87;;
74894;SDS011;63447;49.446;8.666;2023-05-10T04:36:36;5.20;;;2.63;;
74894;SDS011;63447;49.446;8.666;2023-05-10T04:39:02;4.97;;;2.77;;
74894;SDS011;63447;49.446;8.666;2023-05-10T04:41:31;5.50;;;3.03;;
74894;SDS011;63447;49.446;8.666;2023-05-10T04:43:58;6.22;;;2.95;;
74894;SDS011;63447;49.446;8.666;2023-05-10T04:46:24;7.50;;;2.80;;
74894;SDS011;63447;49.446;8.666;2023-05-10T04:48:49;6.93;;;3.00;;
74894;SDS011;63447;49.446;8.666;2023-05-10T04:51:15;8.50;;;3.00;;
74894;SDS011;63447;49.446;8.666;2023-05-10T04:53:40;6.17;;;3.03;;
74894;SDS011;63447;49.446;8.666;2023-05-10T04:56:05;7.17;;;3.00;;
74894;SDS011;63447;49.446;8.666;2023-05-10T04:58:33;5.88;;;3.05;;
74894;SDS011;63447;49.446;8.666;2023-05-10T05:01:07;5.20;;;2.90;;
74894;SDS011;63447;49.446;8.666;2023-05-10T05:03:33;7.55;;;3.50;;
74894;SDS011;63447;49.446;8.666;2023-05-10T05:05:58;7.10;;;3.47;;
74894;SDS011;63447;49.446;8.666;2023-05-10T05:08:26;6.82;;;3.47;;
74894;SDS011;63447;49.446;8.666;2023-05-10T05:10:54;6.63;;;4.18;;
74894;SDS011;63447;49.446;8.666;2023-05-10T05:13:21;7.85;;;3.78;;
74894;SDS011;63447;49.446;8.666;2023-05-10T05:15:47;6.60;;;4.00;;
74894;SDS011;63447;49.446;8.666;2023-05-10T05:18:12;8.20;;;3.80;;
74894;SDS011;63447;49.446;8.666;2023-05-10T05:20:37;6.97;;;4.30;;
74894;SDS011;63447;49.446;8.666;2023-05-10T05:23:03;8.67;;;3.83;;
74894;SDS011;63447;49.446;8.666;2023-05-10T05:25:28;6.33;;;3.67;;
74894;SDS011;63447;49.446;8.666;2023-05-10T05:27:53;9.17;;;4.17;;
74894;SDS011;63447;49.446;8.666;2023-05-10T05:30:21;7.25;;;4.10;;
74894;SDS011;63447;49.446;8.666;2023-05-10T05:32:46;8.23;;;4.10;;
74894;SDS011;63447;49.446;8.666;2023-05-10T05:35:14;7.88;;;4.40;;
74894;SDS011;63447;49.446;8.666;2023-05-10T05:37:42;6.95;;;3.80;;
74894;SDS011;63447;49.446;8.666;2023-05-10T05:40:11;6.27;;;3.83;;
74894;SDS011;63447;49.446;8.666;2023-05-10T05:42:40;7.10;;;4.00;;
74894;SDS011;63447;49.446;8.666;2023-05-10T05:45:05;6.68;;;3.35;;
74894;SDS011;63447;49.446;8.666;2023-05-10T05:47:31;6.60;;;3.83;;
74894;SDS011;63447;49.446;8.666;2023-05-10T05:49:56;5.67;;;3.37;;
74894;SDS011;63447;49.446;8.666;2023-05-10T05:52:26;7.65;;;3.75;;
74894;SDS011;63447;49.446;8.666;2023-05-10T05:54:52;6.70;;;3.72;;
74894;SDS011;63447;49.446;8.666;2023-05-10T05:57:17;6.77;;;3.33;;
74894;SDS011;63447;49.446;8.666;2023-05-10T05:59:42;6.60;;;4.20;;
74894;SDS011;63447;49.446;8.666;2023-05-10T06:02:13;6.60;;;4.70;;
74894;SDS011;63447;49.446;8.666;2023-05-10T06:04:38;7.50;;;3.60;;
74894;SDS011;63447;49.446;8.666;2023-05-10T06:07:03;6.27;;;3.80;;
74894;SDS011;63447;49.446;8.666;2023-05-10T06:09:29;6.47;;;3.27;;
74894;SDS011;63447;49.446;8.666;2023-05-10T06:11:54;7.32;;;3.55;;
74894;SDS011;63447;49.446;8.666;2023-05-10T06:14:22;6.97;;;4.50;;
74894;SDS011;63447;49.446;8.666;2023-05-10T06:16:48;6.60;;;3.90;;
74894;SDS011;63447;49.446;8.666;2023-05-10T06:19:13;7.07;;;4.27;;
74894;SDS011;63447;49.446;8.666;2023-05-10T06:21:40;7.60;;;4.00;;
74894;SDS011;63447;49.446;8.666;2023-05-10T06:24:06;7.83;;;3.97;;
74894;SDS011;63447;49.446;8.666;2023-05-10T06:26:31;7.78;;;4.57;;
74894;SDS011;63447;49.446;8.666;2023-05-10T06:28:59;8.27;;;4.07;;
74894;SDS011;63447;49.446;8.666;2023-05-10T06:31:25;7.63;;;4.60;;
74894;SDS011;63447;49.446;8.666;2023-05-10T06:33:50;7.57;;;4.72;;
74894;SDS011;63447;49.446;8.666;2023-05-10T06:36:15;7.40;;;4.50;;
74894;SDS011;63447;49.446;8.666;2023-05-10T06:38:46;8.27;;;4.82;;
74894;SDS011;63447;49.446;8.666;2023-05-10T06:41:16;7.55;;;4.57;;
74894;SDS011;63447;49.446;8.666;2023-05-10T06:43:43;9.13;;;4.53;;
74894;SDS011;63447;49.446;8.666;2023-05-10T06:46:09;11.88;;;5.70;;
74894;SDS011;63447;49.446;8.666;2023-05-10T06:48:36;9.73;;;4.53;;
74894;SDS011;63447;49.446;8.666;2023-05-10T06:51:02;8.30;;;4.87;;
74894;SDS011;63447;49.446;8.666;2023-05-10T06:53:27;8.80;;;4.70;;
74894;SDS011;63447;49.446;8.666;2023-05-10T06:55:55;8.23;;;4.82;;
74894;SDS011;63447;49.446;8.666;2023-05-10T06:58:25;7.93;;;4.78;;
74894;SDS011;63447;49.446;8.666;2023-05-10T07:00:55;8.88;;;4.57;;
74894;SDS011;63447;49.446;8.666;2023-05-10T07:03:26;7.93;;;4.95;;
74894;SDS011;63447;49.446;8.666;2023-05-10T07:05:52;7.55;;;4.70;;
74894;SDS011;63447;49.446;8.666;2023-05-10T07:08:17;10.83;;;5.10;;
74894;SDS011;63447;49.446;8.666;2023-05-10T07:10:43;7.60;;;4.30;;
74894;SDS011;63447;49.446;8.666;2023-05-10T07:13:08;8.00;;;4.28;;
74894;SDS011;63447;49.446;8.666;2023-05-10T07:15:38;9.27;;;4.70;;
74894;SDS011;63447;49.446;8.666;2023-05-10T07:18:03;7.13;;;4.20;;
74894;SDS011;63447;49.446;8.666;2023-05-10T07:20:33;6.60;;;3.97;;
74894;SDS011;63447;49.446;8.666;2023-05-10T07:22:59;7.38;;;4.10;;
74894;SDS011;63447;49.446;8.666;2023-05-10T07:25:24;8.13;;;4.00;;
74894;SDS011;63447;49.446;8.666;2023-05-10T07:27:49;7.07;;;3.93;;
74894;SDS011;63447;49.446;8.666;2023-05-10T07:30:15;8.93;;;4.25;;
74894;SDS011;63447;49.446;8.666;2023-05-10T07:32:43;7.00;;;3.75;;
74894;SDS011;63447;49.446;8.666;2023-05-10T07:35:08;7.88;;;3.65;;
74894;SDS011;63447;49.446;8.666;2023-05-10T07:37:36;6.55;;;3.85;;
74894;SDS011;63447;49.446;8.666;2023-05-10T07:40:01;5.73;;;3.43;;
74894;SDS011;63447;49.446;8.666;2023-05-10T07:42:27;6.40;;;4.03;;
74894;SDS011;63447;49.446;8.666;2023-05-10T07:44:55;6.97;;;3.92;;
74894;SDS011;63447;49.446;8.666;2023-05-10T07:47:20;6.78;;;3.40;;
74894;SDS011;63447;49.446;8.666;2023-05-10T07:49:45;5.47;;;3.13;;
74894;SDS011;63447;49.446;8.666;2023-05-10T07:52:11;5.90;;;3.53;;
74894;SDS011;63447;49.446;8.666;2023-05-10T07:54:36;6.13;;;3.33;;
74894;SDS011;63447;49.446;8.666;2023-05-10T07:57:04;6.50;;;3.60;;
74894;SDS011;63447;49.446;8.666;2023-05-10T07:59:29;7.70;;;3.17;;
74894;SDS011;63447;49.446;8.666;2023-05-10T08:01:55;5.80;;;3.23;;
74894;SDS011;63447;49.446;8.666;2023-05-10T08:04:21;5.60;;;2.47;;
74894;SDS011;63447;49.446;8.666;2023-05-10T08:06:48;4.75;;;2.30;;
74894;SDS011;63447;49.446;8.666;2023-05-10T08:09:16;4.70;;;2.35;;
74894;SDS011;63447;49.446;8.666;2023-05-10T08:11:44;4.28;;;2.08;;
74894;SDS011;63447;49.446;8.666;2023-05-10T08:14:10;5.03;;;2.78;;
74894;SDS011;63447;49.446;8.666;2023-05-10T08:16:35;5.83;;;2.50;;
74894;SDS011;63447;49.446;8.666;2023-05-10T08:19:00;5.37;;;2.53;;
74894;SDS011;63447;49.446;8.666;2023-05-10T08:21:30;4.32;;;2.13;;
74894;SDS011;63447;49.446;8.666;2023-05-10T08:23:56;4.88;;;1.80;;
74894;SDS011;63447;49.446;8.666;2023-05-10T08:26:21;4.80;;;1.90;;
74894;SDS011;63447;49.446;8.666;2023-05-10T08:28:46;4.67;;;2.27;;
74894;SDS011;63447;49.446;8.666;2023-05-10T08:31:14;4.63;;;1.90;;
74894;SDS011;63447;49.446;8.666;2023-05-10T08:33:40;4.68;;;2.08;;
74894;SDS011;63447;49.446;8.666;2023-05-10T08:36:05;5.20;;;1.70;;
74894;SDS011;63447;49.446;8.666;2023-05-10T08:38:33;5.93;;;2.00;;
74894;SDS011;63447;49.446;8.666;2023-05-10T08:41:00;3.88;;;1.70;;
74894;SDS011;63447;49.446;8.666;2023-05-10T08:43:30;4.45;;;1.80;;
74894;SDS011;63447;49.446;8.666;2023-05-10T08:45:56;6.35;;;2.22;;
74894;SDS011;63447;49.446;8.666;2023-05-10T08:48:28;5.65;;;2.20;;
74894;SDS011;63447;49.446;8.666;2023-05-10T08:50:54;3.92;;;1.58;;
74894;SDS011;63447;49.446;8.666;2023-05-10T08:53:24;4.03;;;1.60;;
74894;SDS011;63447;49.446;8.666;2023-05-10T08:55:53;3.55;;;1.58;;
74894;SDS011;63447;49.446;8.666;2023-05-10T08:58:18;4.07;;;1.60;;
74894;SDS011;63447;49.446;8.666;2023-05-10T09:00:48;4.47;;;1.73;;
74894;SDS011;63447;49.446;8.666;2023-05-10T09:03:15;3.42;;;1.40;;
74894;SDS011;63447;49.446;8.666;2023-05-10T09:05:43;3.65;;;1.60;;
74894;SDS011;63447;49.446;8.666;2023-05-10T09:08:12;3.33;;;1.50;;
74894;SDS011;63447;49.446;8.666;2023-05-10T09:10:39;4.93;;;1.70;;
74894;SDS011;63447;49.446;8.666;2023-05-10T09:13:05;4.50;;;1.50;;
74894;SDS011;63447;49.446;8.666;2023-05-10T09:15:34;3.30;;;1.50;;
74894;SDS011;63447;49.446;8.666;2023-05-10T09:18:01;3.45;;;1.30;;
74894;SDS011;63447;49.446;8.666;2023-05-10T09:20:29;3.88;;;1.60;;
74894;SDS011;63447;49.446;8.666;2023-05-10T09:22:54;3.70;;;1.40;;
74894;SDS011;63447;49.446;8.666;2023-05-10T09:25:20;3.85;;;1.67;;
74894;SDS011;63447;49.446;8.666;2023-05-10T09:27:48;3.55;;;1.45;;
74894;SDS011;63447;49.446;8.666;2023-05-10T09:30:17;4.32;;;1.77;;
74894;SDS011;63447;49.446;8.666;2023-05-10T09:32:49;3.47;;;1.33;;
74894;SDS011;63447;49.446;8.666;2023-05-10T09:35:25;3.55;;;1.20;;
74894;SDS011;63447;49.446;8.666;2023-05-10T09:37:53;3.38;;;1.38;;
74894;SDS011;63447;49.446;8.666;2023-05-10T09:40:23;3.40;;;1.40;;
74894;SDS011;63447;49.446;8.666;2023-05-10T09:42:55;4.13;;;1.55;;
74894;SDS011;63447;49.446;8.666;2023-05-10T09:45:27;3.20;;;1.08;;
74894;SDS011;63447;49.446;8.666;2023-05-10T09:47:53;3.40;;;1.30;;
74894;SDS011;63447;49.446;8.666;2023-05-10T09:50:19;4.10;;;1.40;;
74894;SDS011;63447;49.446;8.666;2023-05-10T09:52:52;3.67;;;1.13;;
74894;SDS011;63447;49.446;8.666;2023-05-10T09:58:03;3.78;;;1.60;;
74894;SDS011;63447;49.446;8.666;2023-05-10T10:00:35;4.03;;;1.40;;
74894;SDS011;63447;49.446;8.666;2023-05-10T10:03:02;3.53;;;1.23;;
74894;SDS011;63447;49.446;8.666;2023-05-10T10:05:28;5.45;;;1.30;;
74894;SDS011;63447;49.446;8.666;2023-05-10T10:07:55;4.25;;;1.50;;
74894;SDS011;63447;49.446;8.666;2023-05-10T10:10:21;3.78;;;1.38;;
74894;SDS011;63447;49.446;8.666;2023-05-10T10:12:47;3.03;;;1.20;;
74894;SDS011;63447;49.446;8.666;2023-05-10T10:15:13;3.97;;;1.10;;
74894;SDS011;63447;49.446;8.666;2023-05-10T10:17:38;4.03;;;1.30;;
74894;SDS011;63447;49.446;8.666;2023-05-10T10:20:06;2.85;;;1.00;;
74894;SDS011;63447;49.446;8.666;2023-05-10T10:22:32;3.35;;;1.23;;
74894;SDS011;63447;49.446;8.666;2023-05-10T10:24:57;2.88;;;1.05;;
74894;SDS011;63447;49.446;8.666;2023-05-10T10:27:24;3.05;;;1.30;;
74894;SDS011;63447;49.446;8.666;2023-05-10T10:35:31;4.50;;;1.67;;
74894;SDS011;63447;49.446;8.666;2023-05-10T10:37:57;5.53;;;1.70;;
74894;SDS011;63447;49.446;8.666;2023-05-10T10:40:26;5.20;;;1.30;;
74894;SDS011;63447;49.446;8.666;2023-05-10T10:42:55;4.43;;;1.52;;
74894;SDS011;63447;49.446;8.666;2023-05-10T10:45:21;4.95;;;2.00;;
74894;SDS011;63447;49.446;8.666;2023-05-10T10:48:19;4.32;;;1.30;;
74894;SDS011;63447;49.446;8.666;2023-05-10T10:50:55;3.97;;;1.20;;
74894;SDS011;63447;49.446;8.666;2023-05-10T10:53:25;5.00;;;1.30;;
74894;SDS011;63447;49.446;8.666;2023-05-10T10:56:10;3.85;;;1.30;;
74894;SDS011;63447;49.446;8.666;2023-05-10T10:58:38;3.45;;;1.20;;
74894;SDS011;63447;49.446;8.666;2023-05-10T11:06:34;4.13;;;1.33;;
74894;SDS011;63447;49.446;8.666;2023-05-10T11:09:10;3.55;;;1.20;;
74894;SDS011;63447;49.446;8.666;2023-05-10T11:11:51;3.88;;;1.23;;
74894;SDS011;63447;49.446;8.666;2023-05-10T11:14:20;3.92;;;1.20;;
74894;SDS011;63447;49.446;8.666;2023-05-10T11:16:47;3.65;;;1.30;;
74894;SDS011;63447;49.446;8.666;2023-05-10T11:19:13;3.50;;;1.20;;
74894;SDS011;63447;49.446;8.666;2023-05-10T11:24:33;3.80;;;1.52;;
74894;SDS011;63447;49.446;8.666;2023-05-10T11:27:00;3.30;;;1.20;;
74894;SDS011;63447;49.446;8.666;2023-05-10T11:29:28;3.72;;;1.40;;
74894;SDS011;63447;49.446;8.666;2023-05-10T11:31:56;3.55;;;1.30;;
74894;SDS011;63447;49.446;8.666;2023-05-10T11:34:24;3.42;;;1.30;;
74894;SDS011;63447;49.446;8.666;2023-05-10T11:36:53;4.35;;;1.30;;
74894;SDS011;63447;49.446;8.666;2023-05-10T11:39:25;3.33;;;1.00;;
74894;SDS011;63447;49.446;8.666;2023-05-10T11:41:51;4.35;;;1.10;;
74894;SDS011;63447;49.446;8.666;2023-05-10T11:44:19;3.03;;;0.88;;
74894;SDS011;63447;49.446;8.666;2023-05-10T11:46:44;3.10;;;1.10;;
74894;SDS011;63447;49.446;8.666;2023-05-10T11:49:10;2.50;;;0.88;;
74894;SDS011;63447;49.446;8.666;2023-05-10T11:51:36;3.85;;;1.00;;
74894;SDS011;63447;49.446;8.666;2023-05-10T11:54:08;4.28;;;0.85;;
74894;SDS011;63447;49.446;8.666;2023-05-10T11:56:34;3.13;;;0.88;;
74894;SDS011;63447;49.446;8.666;2023-05-10T11:59:00;3.88;;;0.80;;
74894;SDS011;63447;49.446;8.666;2023-05-10T12:01:27;3.83;;;0.90;;
74894;SDS011;63447;49.446;8.666;2023-05-10T12:03:54;3.10;;;0.80;;
74894;SDS011;63447;49.446;8.666;2023-05-10T12:06:26;3.90;;;1.10;;
74894;SDS011;63447;49.446;8.666;2023-05-10T12:08:52;3.80;;;1.00;;
74894;SDS011;63447;49.446;8.666;2023-05-10T12:11:18;2.65;;;0.98;;
74894;SDS011;63447;49.446;8.666;2023-05-10T12:13:45;5.45;;;1.10;;
74894;SDS011;63447;49.446;8.666;2023-05-10T12:16:21;2.83;;;0.80;;
74894;SDS011;63447;49.446;8.666;2023-05-10T12:18:48;2.75;;;0.80;;
74894;SDS011;63447;49.446;8.666;2023-05-10T12:21:15;2.28;;;0.80;;
74894;SDS011;63447;49.446;8.666;2023-05-10T12:23:45;2.40;;;0.80;;
74894;SDS011;63447;49.446;8.666;2023-05-10T12:26:10;3.42;;;1.17;;
74894;SDS011;63447;49.446;8.666;2023-05-10T12:28:38;4.80;;;1.02;;
74894;SDS011;63447;49.446;8.666;2023-05-10T12:31:07;3.13;;;0.88;;
74894;SDS011;63447;49.446;8.666;2023-05-10T12:33:40;4.53;;;1.00;;
74894;SDS011;63447;49.446;8.666;2023-05-10T12:36:08;4.60;;;1.10;;
74894;SDS011;63447;49.446;8.666;2023-05-10T12:38:35;4.25;;;1.10;;
74894;SDS011;63447;49.446;8.666;2023-05-10T12:41:01;4.38;;;1.40;;
74894;SDS011;63447;49.446;8.666;2023-05-10T12:43:31;3.80;;;1.38;;
74894;SDS011;63447;49.446;8.666;2023-05-10T12:45:58;3.38;;;1.02;;
74894;SDS011;63447;49.446;8.666;2023-05-10T12:48:23;5.90;;;1.33;;
74894;SDS011;63447;49.446;8.666;2023-05-10T12:50:49;4.00;;;1.05;;
74894;SDS011;63447;49.446;8.666;2023-05-10T12:53:17;3.90;;;1.20;;
74894;SDS011;63447;49.446;8.666;2023-05-10T12:55:44;3.50;;;0.90;;
74894;SDS011;63447;49.446;8.666;2023-05-10T12:58:10;5.57;;;1.00;;
74894;SDS011;63447;49.446;8.666;2023-05-10T13:00:37;3.83;;;1.00;;
74894;SDS011;63447;49.446;8.666;2023-05-10T13:03:03;6.15;;;1.17;;
74894;SDS011;63447;49.446;8.666;2023-05-10T13:05:32;3.53;;;1.00;;
74894;SDS011;63447;49.446;8.666;2023-05-10T13:07:58;6.40;;;1.13;;
74894;SDS011;63447;49.446;8.666;2023-05-10T13:10:24;2.47;;;0.70;;
74894;SDS011;63447;49.446;8.666;2023-05-10T13:12:50;3.78;;;1.10;;
74894;SDS011;63447;49.446;8.666;2023-05-10T13:15:17;3.33;;;0.95;;
74894;SDS011;63447;49.446;8.666;2023-05-10T13:17:45;3.92;;;1.00;;
74894;SDS011;63447;49.446;8.666;2023-05-10T13:20:13;4.05;;;1.02;;
74894;SDS011;63447;49.446;8.666;2023-05-10T13:22:39;3.70;;;0.80;;
74894;SDS011;63447;49.446;8.666;2023-05-10T13:25:08;3.05;;;0.80;;
74894;SDS011;63447;49.446;8.666;2023-05-10T13:27:33;3.53;;;0.88;;
74894;SDS011;63447;49.446;8.666;2023-05-10T13:30:01;3.03;;;0.75;;
74894;SDS011;63447;49.446;8.666;2023-05-10T13:32:29;2.88;;;0.80;;
74894;SDS011;63447;49.446;8.666;2023-05-10T13:34:57;2.80;;;0.93;;
74894;SDS011;63447;49.446;8.666;2023-05-10T13:37:25;5.00;;;0.95;;
74894;SDS011;63447;49.446;8.666;2023-05-10T13:39:55;4.10;;;0.88;;
74894;SDS011;63447;49.446;8.666;2023-05-10T13:42:21;2.63;;;0.75;;
74894;SDS011;63447;49.446;8.666;2023-05-10T13:44:50;3.78;;;1.13;;
74894;SDS011;63447;49.446;8.666;2023-05-10T13:47:16;4.85;;;1.52;;
74894;SDS011;63447;49.446;8.666;2023-05-10T13:49:41;3.20;;;0.97;;
74894;SDS011;63447;49.446;8.666;2023-05-10T13:52:07;2.42;;;0.82;;
74894;SDS011;63447;49.446;8.666;2023-05-10T13:54:33;5.43;;;1.00;;
74894;SDS011;63447;49.446;8.666;2023-05-10T13:57:06;3.05;;;0.85;;
74894;SDS011;63447;49.446;8.666;2023-05-10T13:59:31;3.35;;;0.63;;
74894;SDS011;63447;49.446;8.666;2023-05-10T14:01:59;3.55;;;0.80;;
74894;SDS011;63447;49.446;8.666;2023-05-10T14:04:31;2.22;;;0.60;;
74894;SDS011;63447;49.446;8.666;2023-05-10T14:06:59;2.88;;;0.80;;
74894;SDS011;63447;49.446;8.666;2023-05-10T14:09:24;3.42;;;0.80;;
74894;SDS011;63447;49.446;8.666;2023-05-10T14:11:52;4.07;;;0.80;;
74894;SDS011;63447;49.446;8.666;2023-05-10T14:14:20;4.00;;;0.70;;
74894;SDS011;63447;49.446;8.666;2023-05-10T14:16:46;3.57;;;0.70;;
74894;SDS011;63447;49.446;8.666;2023-05-10T14:19:13;3.63;;;0.80;;
74894;SDS011;63447;49.446;8.666;2023-05-10T14:21:39;2.77;;;0.60;;
74894;SDS011;63447;49.446;8.666;2023-05-10T14:24:09;2.67;;;0.63;;
74894;SDS011;63447;49.446;8.666;2023-05-10T14:26:35;2.92;;;0.70;;
74894;SDS011;63447;49.446;8.666;2023-05-10T14:29:03;3.03;;;0.90;;
74894;SDS011;63447;49.446;8.666;2023-05-10T14:31:28;2.57;;;0.70;;
74894;SDS011;63447;49.446;8.666;2023-05-10T14:33:55;3.90;;;0.80;;
74894;SDS011;63447;49.446;8.666;2023-05-10T14:36:20;3.08;;;0.77;;
74894;SDS011;63447;49.446;8.666;2023-05-10T14:38:52;2.03;;;0.70;;
74894;SDS011;63447;49.446;8.666;2023-05-10T14:41:19;3.63;;;0.77;;
74894;SDS011;63447;49.446;8.666;2023-05-10T14:43:45;3.33;;;0.90;;
74894;SDS011;63447;49.446;8.666;2023-05-10T14:46:13;3.08;;;0.90;;
74894;SDS011;63447;49.446;8.666;2023-05-10T14:48:39;2.85;;;0.60;;
74894;SDS011;63447;49.446;8.666;2023-05-10T14:51:04;2.55;;;0.60;;
74894;SDS011;63447;49.446;8.666;2023-05-10T14:53:30;3.43;;;0.70;;
74894;SDS011;63447;49.446;8.666;2023-05-10T14:55:55;3.70;;;0.80;;
74894;SDS011;63447;49.446;8.666;2023-05-10T14:58:20;3.03;;;0.90;;
74894;SDS011;63447;49.446;8.666;2023-05-10T15:00:45;3.35;;;0.70;;
74894;SDS011;63447;49.446;8.666;2023-05-10T15:03:11;2.70;;;0.63;;
74894;SDS011;63447;49.446;8.666;2023-05-10T15:05:37;3.10;;;0.70;;
74894;SDS011;63447;49.446;8.666;2023-05-10T15:08:02;2.55;;;0.63;;
74894;SDS011;63447;49.446;8.666;2023-05-10T15:10:29;2.70;;;0.60;;
74894;SDS011;63447;49.446;8.666;2023-05-10T15:12:55;1.95;;;0.60;;
74894;SDS011;63447;49.446;8.666;2023-05-10T15:15:20;2.40;;;0.88;;
74894;SDS011;63447;49.446;8.666;2023-05-10T15:17:51;3.45;;;0.65;;
74894;SDS011;63447;49.446;8.666;2023-05-10T15:20:18;3.50;;;0.82;;
74894;SDS011;63447;49.446;8.666;2023-05-10T15:22:44;3.63;;;0.63;;